Belle Prairie, Nebraska
Current Conditions -  °F | °C
As of 3:15 AM on Thursday 27 Nov 2014 (Local Time) from KHJH Reporting Station
Clear Clear  
Wind Chill:   Ceiling: Unl
Heat Index: 17°   Visibility: 10mi
Dew Point: 11°   Wind: 7mph
Humidity: 75%   Direction: 60°ENE
Pressure: 30.46"   Gusts: NA
Location:  40.3936°N, 97.5387°W
Report Text: KHJH 270915Z AUTO 06006KT 10SM CLR M08/M12 A3046 RMK AO2 T10811118
Loading
Personal Weather Stations






























Interactive Weather Map New forecast layout! Learn more

10-Day Weather Forecast

Advertisements
Track Severe Weather on mobile